Time;durP1;ratioP1;P1;durP2;ratioP2;P2;SDS_P1;SDS_P2;PMS_P1;PMS_P2;Temp;Humidity;BMP_temperature;BMP_pressure;BME280_temperature;BME280_humidity;BME280_pressure;Samples;Min_cycle;Max_cycle;Signal;HPM_P1;HPM_P2
2022/10/17 00:01:16;;;;;;;21.90;11.30;;;15.00;99.90;;;14.35;100.00;101064.72;4151724;28;20489;-77
2022/10/17 00:03:17;;;;;;;23.23;12.55;;;15.00;99.90;;;14.42;100.00;101074.66;4151925;28;20022;-77
2022/10/17 00:05:18;;;;;;;30.02;12.98;;;15.10;99.90;;;14.36;100.00;101079.66;4152104;28;20109;-77
2022/10/17 00:07:19;;;;;;;25.08;12.07;;;15.10;99.90;;;14.42;100.00;101072.00;4167003;28;20025;-77
2022/10/17 00:09:20;;;;;;;31.02;14.52;;;15.10;99.90;;;14.37;100.00;101062.72;4154292;28;20026;-77
2022/10/17 00:11:22;;;;;;;26.10;14.32;;;15.10;99.90;;;14.45;100.00;101074.31;4169787;28;20083;-77
2022/10/17 00:13:24;;;;;;;38.35;13.98;;;15.10;99.90;;;14.45;100.00;101075.13;4169752;28;20092;-77
2022/10/17 00:15:25;;;;;;;33.70;13.57;;;15.10;99.90;;;14.36;100.00;101042.50;4153415;28;20026;-77
2022/10/17 00:17:26;;;;;;;27.95;12.50;;;15.20;99.90;;;14.43;100.00;101065.66;4153207;28;20559;-77
2022/10/17 00:19:26;;;;;;;27.83;13.82;;;15.20;99.90;;;14.44;100.00;101062.84;4169785;28;20021;-77
2022/10/17 00:21:27;;;;;;;21.95;11.73;;;15.20;99.90;;;14.45;100.00;101069.00;4169698;28;20044;-77
2022/10/17 00:23:29;;;;;;;25.55;12.45;;;15.20;99.90;;;14.43;100.00;101076.28;4169868;28;20091;-77
2022/10/17 00:25:30;;;;;;;29.45;13.45;;;15.20;99.90;;;14.31;100.00;101047.44;4153380;28;20045;-77
2022/10/17 00:27:38;;;;;;;25.27;12.48;;;15.20;99.90;;;14.48;100.00;101080.09;4154365;28;20030;-77
2022/10/17 00:29:39;;;;;;;23.42;12.77;;;15.20;99.90;;;14.40;100.00;101075.63;4153411;28;20030;-77
2022/10/17 00:31:40;;;;;;;27.70;13.25;;;15.20;99.90;;;14.48;100.00;101090.72;4136642;28;20054;-77
2022/10/17 00:33:42;;;;;;;28.10;12.88;;;15.20;99.90;;;14.44;100.00;101084.09;4154253;28;20041;-77
2022/10/17 00:35:43;;;;;;;25.95;12.82;;;15.20;99.90;;;14.43;100.00;101086.91;4136579;28;20402;-77
2022/10/17 00:37:44;;;;;;;23.35;11.02;;;15.20;99.90;;;14.37;100.00;101083.94;4153356;28;20065;-77
2022/10/17 00:39:45;;;;;;;29.48;12.50;;;15.10;99.90;;;14.44;100.00;101088.56;4153085;28;20566;-76
2022/10/17 00:41:46;;;;;;;23.23;11.60;;;15.20;99.90;;;14.36;100.00;101082.31;4152984;28;20022;-76
2022/10/17 00:44:01;;;;;;;27.15;12.43;;;15.10;99.90;;;14.39;100.00;101091.75;4152846;28;20069;-76
2022/10/17 00:46:02;;;;;;;27.58;13.05;;;15.10;99.90;;;14.36;100.00;101092.94;4169186;28;20152;-77
2022/10/17 00:48:08;;;;;;;23.55;11.85;;;15.10;99.90;;;14.32;100.00;101085.44;4154200;28;20080;-77
2022/10/17 00:50:09;;;;;;;23.73;11.70;;;15.10;99.90;;;14.35;100.00;101091.25;4152556;28;20037;-77
2022/10/17 00:52:25;;;;;;;26.83;12.10;;;15.10;99.90;;;14.38;100.00;101092.75;4153959;28;20034;-77
2022/10/17 00:54:37;;;;;;;20.42;11.40;;;15.10;99.90;;;14.34;100.00;101073.69;4152659;28;20509;-77
2022/10/17 00:56:39;;;;;;;23.45;12.77;;;15.10;99.90;;;14.43;100.00;101089.56;4153944;28;20493;-77
2022/10/17 00:58:40;;;;;;;27.60;11.93;;;15.20;99.90;;;14.27;100.00;101058.59;4153749;28;20025;-77
2022/10/17 01:00:42;;;;;;;25.90;12.18;;;15.20;99.90;;;14.44;100.00;101077.94;4152970;28;20026;-77
2022/10/17 01:02:44;;;;;;;24.50;11.50;;;15.10;99.90;;;14.37;100.00;101075.97;4153691;28;20032;-77
2022/10/17 01:04:50;;;;;;;24.67;12.10;;;15.10;99.90;;;14.31;100.00;101050.09;4153824;28;20030;-77
2022/10/17 01:06:51;;;;;;;23.42;11.30;;;15.20;99.90;;;14.40;100.00;101074.81;4140944;28;20075;-77
2022/10/17 01:08:52;;;;;;;26.33;11.90;;;15.20;99.90;;;14.47;100.00;101086.41;4152720;28;20497;-77
2022/10/17 01:11:44;;;;;;;25.23;12.20;;;15.20;99.90;;;14.49;100.00;101095.00;4153860;28;20049;-77
2022/10/17 01:14:12;;;;;;;21.05;10.68;;;15.20;99.90;;;14.53;100.00;101096.31;4133097;28;20052;-76
2022/10/17 01:16:51;;;;;;;21.88;10.60;;;15.20;99.90;;;14.57;100.00;101094.16;4134854;28;20133;-77
2022/10/17 01:18:59;;;;;;;22.65;10.73;;;15.20;99.90;;;14.61;100.00;101106.06;4153377;28;20440;-77
2022/10/17 01:21:28;;;;;;;25.00;11.38;;;15.30;99.90;;;14.69;100.00;101109.53;4152308;28;20084;-77
2022/10/17 01:24:19;;;;;;;25.98;10.98;;;15.30;99.90;;;14.73;100.00;101116.13;4152528;28;20030;-76
2022/10/17 01:26:51;;;;;;;24.05;9.88;;;15.40;99.90;;;14.77;100.00;101113.97;4124372;28;20062;-76
2022/10/17 01:29:27;;;;;;;23.20;10.27;;;15.40;99.90;;;14.80;100.00;101106.47;4152652;28;20048;-77
2022/10/17 01:31:50;;;;;;;24.02;9.80;;;15.50;99.90;;;14.88;100.00;101122.38;4152028;28;20053;-77
2022/10/17 01:34:27;;;;;;;23.15;8.80;;;15.60;99.90;;;14.91;100.00;101126.50;4152203;28;20034;-77
2022/10/17 01:36:45;;;;;;;20.23;9.10;;;15.60;99.90;;;15.03;100.00;101125.09;4142000;28;20037;-77
2022/10/17 01:38:52;;;;;;;18.13;8.57;;;15.60;99.90;;;15.01;100.00;101123.63;4151992;28;20041;-77
2022/10/17 01:41:09;;;;;;;23.63;8.80;;;15.70;99.90;;;15.07;100.00;101136.22;4152091;28;20084;-77
2022/10/17 01:43:24;;;;;;;20.75;8.65;;;15.70;99.90;;;15.05;100.00;101122.28;4151892;28;20034;-77
2022/10/17 01:46:25;;;;;;;17.23;8.55;;;15.70;99.90;;;15.05;100.00;101120.47;4136190;28;20026;-77
2022/10/17 01:48:37;;;;;;;20.92;8.90;;;15.80;99.90;;;15.14;100.00;101135.31;4151915;28;20473;-77
2022/10/17 01:50:48;;;;;;;21.58;8.68;;;15.80;99.90;;;15.11;100.00;101132.22;4151863;28;20030;-76
2022/10/17 01:53:00;;;;;;;20.00;8.80;;;15.80;99.90;;;15.12;100.00;101126.69;4152277;28;20572;-77
2022/10/17 01:55:14;;;;;;;19.73;8.48;;;15.80;99.90;;;15.20;100.00;101129.28;4152510;28;20100;-77
2022/10/17 01:57:31;;;;;;;22.05;8.55;;;15.90;99.90;;;15.24;100.00;101135.94;4147967;28;20449;-76
2022/10/17 01:59:43;;;;;;;20.20;8.60;;;15.90;99.90;;;15.27;100.00;101122.28;4161290;28;20025;-77
2022/10/17 02:01:49;;;;;;;19.85;8.77;;;15.90;99.90;;;15.31;100.00;101122.75;4167888;28;20021;-77
2022/10/17 02:03:51;;;;;;;17.83;7.93;;;16.00;99.90;;;15.34;100.00;101125.91;4168047;28;20104;-77
2022/10/17 02:05:52;;;;;;;17.30;9.20;;;16.00;99.90;;;15.20;100.00;101105.38;4168116;28;20029;-77
2022/10/17 02:07:53;;;;;;;19.42;8.23;;;16.00;99.90;;;15.27;100.00;101114.31;4153189;28;20029;-77
2022/10/17 02:09:54;;;;;;;25.60;8.55;;;16.00;99.90;;;15.35;100.00;101124.06;4152744;28;20489;-77
2022/10/17 02:12:16;;;;;;;17.58;8.32;;;16.00;99.90;;;15.36;100.00;101121.22;4153274;28;20028;-77
2022/10/17 02:14:45;;;;;;;21.83;7.50;;;16.00;99.90;;;15.30;100.00;101111.28;4152718;28;20037;-77
2022/10/17 02:17:04;;;;;;;15.07;6.85;;;16.00;99.90;;;15.33;100.00;101116.25;4151341;28;20416;-77
2022/10/17 02:19:44;;;;;;;15.43;7.78;;;16.00;99.90;;;15.34;100.00;101115.25;4152769;28;20480;-77
2022/10/17 02:21:50;;;;;;;19.08;7.65;;;16.00;99.90;;;15.32;100.00;101111.13;4151862;28;20076;-77
2022/10/17 02:24:17;;;;;;;12.57;7.65;;;16.00;99.90;;;15.14;100.00;101082.16;4152781;28;20072;-77
2022/10/17 02:26:34;;;;;;;17.60;7.10;;;16.00;99.90;;;15.31;100.00;101109.47;4151719;28;20032;-77
2022/10/17 02:28:51;;;;;;;18.08;7.38;;;16.00;99.90;;;15.28;100.00;101113.31;4151373;28;20033;-77
2022/10/17 02:31:05;;;;;;;16.98;7.93;;;16.00;99.90;;;15.31;100.00;101112.13;4150141;28;20061;-77
2022/10/17 02:33:19;;;;;;;14.95;6.88;;;16.00;99.90;;;15.31;100.00;101112.97;4167459;28;20098;-77
2022/10/17 02:35:24;;;;;;;19.90;8.60;;;16.00;99.90;;;15.27;100.00;101103.69;4167612;28;20559;-77
2022/10/17 02:37:28;;;;;;;16.30;7.47;;;16.00;99.90;;;15.32;100.00;101105.81;4151516;28;20034;-77
2022/10/17 02:39:31;;;;;;;17.05;7.38;;;16.00;99.90;;;15.26;100.00;101096.69;4151450;28;20049;-77
2022/10/17 02:41:33;;;;;;;14.32;6.38;;;16.00;99.90;;;15.25;100.00;101105.69;4151100;28;20057;-77
2022/10/17 02:43:36;;;;;;;14.63;6.75;;;16.00;99.90;;;15.35;100.00;101106.25;4151041;28;20157;-77
2022/10/17 02:45:38;;;;;;;15.60;7.00;;;16.00;99.90;;;15.33;100.00;101105.63;4151063;28;20033;-77
2022/10/17 02:48:07;;;;;;;17.23;6.78;;;16.00;99.90;;;15.36;100.00;101117.72;4150556;28;20028;-77
2022/10/17 02:50:09;;;;;;;11.60;6.13;;;16.10;99.90;;;15.37;100.00;101114.06;4150153;28;20096;-77
2022/10/17 02:52:34;;;;;;;14.40;5.43;;;16.00;99.90;;;15.24;100.00;101097.88;4151221;28;20030;-77
2022/10/17 02:54:44;;;;;;;19.10;6.15;;;16.00;99.90;;;15.37;100.00;101116.75;4149236;28;20036;-77
2022/10/17 02:56:55;;;;;;;12.57;5.15;;;16.00;99.90;;;15.25;100.00;101097.72;4164498;28;20025;-77
2022/10/17 02:58:58;;;;;;;13.25;5.53;;;16.10;99.90;;;15.38;100.00;101115.75;4151574;28;20040;-77
2022/10/17 03:01:00;;;;;;;11.85;5.25;;;16.10;99.90;;;15.31;100.00;101098.84;4151011;28;20026;-77
2022/10/17 03:03:00;;;;;;;14.02;4.78;;;16.10;99.90;;;15.37;100.00;101112.25;4151073;28;20033;-77
2022/10/17 03:05:01;;;;;;;11.70;4.78;;;16.10;99.90;;;15.38;100.00;101100.59;4151312;28;20029;-77
2022/10/17 03:07:02;;;;;;;11.18;4.65;;;16.10;99.90;;;15.37;100.00;101111.41;4167497;28;20052;-77
2022/10/17 03:09:04;;;;;;;14.00;4.50;;;16.10;99.90;;;15.35;100.00;101110.78;4167654;28;20025;-77
2022/10/17 03:11:05;;;;;;;11.35;3.95;;;16.10;99.90;;;15.36;100.00;101113.25;4151256;28;20030;-77
2022/10/17 03:13:05;;;;;;;10.20;4.30;;;16.10;99.90;;;15.37;100.00;101114.06;4152203;28;20064;-77
2022/10/17 03:15:07;;;;;;;13.95;3.85;;;16.10;99.90;;;15.39;100.00;101112.88;4167640;28;20412;-76
2022/10/17 03:17:08;;;;;;;8.45;3.38;;;16.10;99.90;;;15.38;100.00;101115.75;4150851;28;20033;-77
2022/10/17 03:19:09;;;;;;;13.98;4.10;;;16.10;99.90;;;15.33;100.00;101104.78;4152173;28;20022;-77
2022/10/17 03:21:10;;;;;;;12.80;4.00;;;16.10;99.90;;;15.37;100.00;101114.91;4167333;28;20057;-77
2022/10/17 03:23:11;;;;;;;11.18;4.13;;;16.10;99.90;;;15.34;100.00;101109.94;4152233;28;20524;-77
2022/10/17 03:25:11;;;;;;;12.57;3.67;;;16.10;99.90;;;15.34;100.00;101122.41;4167408;28;20021;-77
2022/10/17 03:27:12;;;;;;;10.05;3.47;;;16.00;99.90;;;15.30;100.00;101116.63;4152139;28;20156;-77
2022/10/17 03:29:13;;;;;;;6.80;3.10;;;16.10;99.90;;;15.31;100.00;101120.94;4152036;28;20025;-77
2022/10/17 03:31:16;;;;;;;9.68;4.43;;;16.00;99.90;;;15.26;100.00;101117.97;4150570;28;20429;-77
2022/10/17 03:33:17;;;;;;;11.65;3.65;;;16.00;99.90;;;15.36;100.00;101145.16;4167321;28;20025;-77
2022/10/17 03:35:18;;;;;;;10.90;4.15;;;16.00;99.90;;;15.31;100.00;101139.53;4150774;28;20033;-77
2022/10/17 03:37:18;;;;;;;6.47;3.50;;;16.10;99.90;;;15.35;100.00;101140.81;4167068;28;20064;-77
2022/10/17 03:39:19;;;;;;;9.85;4.45;;;16.00;99.90;;;15.36;100.00;101155.78;4151433;28;20022;-77
2022/10/17 03:41:20;;;;;;;12.45;3.47;;;16.10;99.90;;;15.30;100.00;101140.53;4150751;28;20018;-77
2022/10/17 03:43:21;;;;;;;12.70;4.25;;;16.00;99.90;;;15.31;100.00;101142.19;4153664;28;20113;-77
2022/10/17 03:45:22;;;;;;;7.22;3.50;;;16.00;99.90;;;15.32;100.00;101138.50;4137772;28;20125;-77
2022/10/17 03:47:23;;;;;;;10.18;3.78;;;16.00;99.90;;;15.32;100.00;101143.03;4153557;28;20432;-77
2022/10/17 03:49:24;;;;;;;11.27;3.17;;;16.00;99.90;;;15.25;100.00;101137.59;4153789;28;20049;-77
2022/10/17 03:51:25;;;;;;;14.32;2.60;;;16.00;99.90;;;15.26;100.00;101143.75;4146744;28;20030;-77
2022/10/17 03:53:27;;;;;;;5.95;1.85;;;16.00;99.90;;;15.14;100.00;101135.31;4153875;28;20037;-77
2022/10/17 03:55:27;;;;;;;7.22;2.15;;;16.00;99.90;;;15.13;100.00;101123.06;4153516;28;20482;-77
2022/10/17 03:57:28;;;;;;;8.43;1.80;;;16.00;99.90;;;15.06;100.00;101122.09;4153887;28;20037;-77
2022/10/17 03:59:30;;;;;;;8.18;1.88;;;16.00;99.90;;;15.20;100.00;101147.91;4153882;28;20367;-77
2022/10/17 04:01:31;;;;;;;7.57;1.80;;;15.90;99.90;;;15.09;100.00;101123.56;4154553;28;20083;-77
2022/10/17 04:03:32;;;;;;;6.25;1.90;;;15.90;99.90;;;15.12;100.00;101140.00;4153429;28;20026;-77
2022/10/17 04:05:33;;;;;;;8.10;2.28;;;15.90;99.90;;;15.07;100.00;101134.38;4153998;28;20120;-77
2022/10/17 04:07:36;;;;;;;7.38;2.00;;;15.90;99.90;;;15.09;100.00;101144.81;4154893;28;20034;-77
2022/10/17 04:09:36;;;;;;;5.28;1.20;;;15.80;99.90;;;15.09;100.00;101150.97;4137445;28;20023;-76
2022/10/17 04:11:37;;;;;;;4.85;1.95;;;15.80;99.90;;;15.02;100.00;101134.09;4154572;28;20096;-77
2022/10/17 04:13:39;;;;;;;6.65;1.13;;;15.80;99.90;;;15.03;100.00;101138.38;4153378;28;20022;-77
2022/10/17 04:15:39;;;;;;;5.07;1.30;;;15.80;99.90;;;15.01;100.00;101145.72;4153439;28;20061;-77
2022/10/17 04:17:40;;;;;;;7.05;1.40;;;15.80;99.90;;;14.94;100.00;101134.94;4153227;28;20421;-77
2022/10/17 04:19:41;;;;;;;3.70;0.93;;;15.80;99.90;;;14.91;100.00;101139.78;4154788;28;20033;-77
2022/10/17 04:21:42;;;;;;;5.20;1.65;;;15.70;99.90;;;14.95;100.00;101149.91;4153744;28;20392;-76
2022/10/17 04:23:43;;;;;;;9.32;1.67;;;15.70;99.90;;;14.81;100.00;101121.41;4169604;28;20037;-77
2022/10/17 04:25:44;;;;;;;5.43;1.10;;;15.70;99.90;;;14.88;100.00;101145.44;4153287;28;20128;-77
2022/10/17 04:27:45;;;;;;;4.57;1.00;;;15.60;99.90;;;14.82;100.00;101135.50;4154510;28;20026;-77
2022/10/17 04:29:46;;;;;;;4.38;0.88;;;15.60;99.90;;;14.81;100.00;101136.53;4153409;28;20041;-77
2022/10/17 04:31:47;;;;;;;6.88;1.27;;;15.60;99.90;;;14.74;100.00;101146.19;4136311;28;20073;-77
2022/10/17 04:33:49;;;;;;;4.70;1.02;;;15.60;99.90;;;14.73;100.00;101149.81;4141280;28;20478;-77
2022/10/17 04:36:10;;;;;;;3.92;0.90;;;15.50;99.90;;;14.74;100.00;101154.16;4168509;28;20029;-77
2022/10/17 04:38:10;;;;;;;4.45;1.23;;;15.50;99.90;;;14.70;100.00;101161.63;4154919;28;20030;-77
2022/10/17 04:40:11;;;;;;;4.63;0.90;;;15.40;99.90;;;14.63;100.00;101146.56;4169282;28;20032;-77
2022/10/17 04:42:12;;;;;;;8.10;1.38;;;15.40;99.90;;;14.68;100.00;101160.97;4169534;28;20045;-77
2022/10/17 04:44:13;;;;;;;4.63;1.05;;;15.40;99.90;;;14.67;100.00;101169.09;4169277;28;20115;-77
2022/10/17 04:46:14;;;;;;;5.40;0.95;;;15.40;99.90;;;14.58;100.00;101165.66;4168991;28;20550;-77
2022/10/17 04:48:15;;;;;;;8.73;1.25;;;15.40;99.90;;;14.55;100.00;101162.50;4169136;28;20038;-77
2022/10/17 04:50:16;;;;;;;3.80;1.35;;;15.40;99.90;;;14.61;100.00;101175.94;4169139;28;20036;-77
2022/10/17 04:52:17;;;;;;;7.38;1.52;;;15.40;99.90;;;14.57;100.00;101185.25;4169158;28;20029;-77
2022/10/17 04:54:18;;;;;;;6.18;1.15;;;15.30;99.90;;;14.53;100.00;101183.09;4152199;28;20525;-77
2022/10/17 04:56:22;;;;;;;6.40;1.52;;;15.30;99.90;;;14.57;100.00;101217.13;4169318;28;20022;-77
2022/10/17 04:58:24;;;;;;;9.27;1.55;;;15.30;99.90;;;14.54;100.00;101217.47;4169100;28;20025;-77
2022/10/17 05:00:24;;;;;;;5.97;1.00;;;15.30;99.90;;;14.50;100.00;101210.81;4154020;28;20026;-77
2022/10/17 05:02:25;;;;;;;5.90;1.40;;;15.30;99.90;;;14.47;100.00;101218.28;4168916;28;20033;-77
2022/10/17 05:04:26;;;;;;;7.30;1.30;;;15.20;99.90;;;14.47;100.00;101223.59;4153861;28;20160;-77
2022/10/17 05:06:27;;;;;;;4.95;1.20;;;15.20;99.90;;;14.42;100.00;101215.31;4153735;28;20025;-77
2022/10/17 05:08:28;;;;;;;7.07;0.77;;;15.20;99.90;;;14.37;100.00;101221.13;4153160;28;20072;-77
2022/10/17 05:10:29;;;;;;;6.28;1.30;;;15.10;99.90;;;14.43;100.00;101230.22;4168941;28;20025;-77
2022/10/17 05:12:30;;;;;;;4.78;0.95;;;15.10;99.90;;;14.32;100.00;101231.41;4136274;28;20082;-76
2022/10/17 05:14:30;;;;;;;5.95;1.17;;;15.10;99.90;;;14.30;100.00;101236.88;4169031;28;20041;-76
2022/10/17 05:16:32;;;;;;;9.02;1.20;;;15.00;99.90;;;14.22;100.00;101228.91;4153552;28;20017;-77
2022/10/17 05:18:33;;;;;;;4.15;1.48;;;15.00;99.90;;;14.12;100.00;101219.47;4152652;28;20030;-77
2022/10/17 05:20:34;;;;;;;7.10;1.50;;;15.00;99.90;;;14.22;100.00;101258.09;4153655;28;20022;-76
2022/10/17 05:22:35;;;;;;;3.03;0.93;;;14.90;99.90;;;14.11;100.00;101237.22;4152375;28;20505;-77
2022/10/17 05:24:36;;;;;;;7.72;1.38;;;14.90;99.90;;;14.03;100.00;101229.28;4152430;28;20069;-77
2022/10/17 05:26:36;;;;;;;7.78;1.23;;;14.90;99.90;;;14.02;100.00;101237.38;4152452;28;20033;-77
2022/10/17 05:28:38;;;;;;;8.45;1.42;;;14.90;99.90;;;14.20;100.00;101262.75;4153555;28;20033;-77
2022/10/17 05:30:38;;;;;;;5.22;1.52;;;14.90;99.90;;;14.16;100.00;101256.13;4151721;28;20042;-76
2022/10/17 05:32:39;;;;;;;4.50;0.85;;;14.90;99.90;;;14.14;100.00;101258.13;4168494;28;20033;-77
2022/10/17 05:34:40;;;;;;;4.70;1.38;;;14.90;99.90;;;14.19;100.00;101271.69;4152425;28;20073;-77
2022/10/17 05:36:41;;;;;;;6.35;1.52;;;14.90;99.90;;;14.18;100.00;101280.69;4153405;28;20033;-77
2022/10/17 05:38:42;;;;;;;5.35;1.27;;;14.90;99.90;;;14.17;100.00;101260.44;4153536;28;20025;-77
2022/10/17 05:40:43;;;;;;;4.35;1.08;;;14.90;99.90;;;14.07;100.00;101262.41;4151903;28;20123;-77
2022/10/17 05:42:47;;;;;;;7.05;1.48;;;14.90;99.90;;;14.14;100.00;101284.66;4168506;28;20439;-77
2022/10/17 05:44:48;;;;;;;5.85;1.20;;;14.90;99.90;;;14.05;100.00;101275.03;4153319;28;20030;-77
2022/10/17 05:46:50;;;;;;;3.78;0.90;;;14.80;99.90;;;14.05;100.00;101280.34;4152962;28;20080;-76
2022/10/17 05:48:52;;;;;;;7.22;1.17;;;14.80;99.90;;;14.07;100.00;101290.75;4151593;28;20033;-77
2022/10/17 05:51:01;;;;;;;5.00;1.25;;;14.80;99.90;;;14.02;100.00;101290.44;4152151;28;20048;-77
2022/10/17 05:53:02;;;;;;;5.10;1.40;;;14.80;99.90;;;14.05;100.00;101306.03;4168465;28;20037;-77
2022/10/17 05:55:05;;;;;;;7.68;1.05;;;14.80;99.90;;;14.03;100.00;101310.69;4153219;28;20026;-76
2022/10/17 05:57:05;;;;;;;3.58;1.63;;;14.80;99.90;;;14.02;100.00;101311.66;4135449;28;20133;-77
2022/10/17 05:59:06;;;;;;;7.95;2.00;;;14.80;99.90;;;14.03;100.00;101314.16;4152075;28;20022;-76
2022/10/17 06:01:09;;;;;;;6.63;1.77;;;14.80;99.90;;;14.08;100.00;101317.13;4167963;28;20428;-77
2022/10/17 06:03:11;;;;;;;8.63;1.42;;;14.80;99.90;;;14.11;100.00;101327.44;4152957;28;20025;-77
2022/10/17 06:05:13;;;;;;;6.85;1.63;;;14.80;99.90;;;14.14;100.00;101326.25;4151597;28;20037;-77
2022/10/17 06:07:15;;;;;;;6.43;1.05;;;14.90;99.90;;;14.02;100.00;101301.03;4167868;28;20025;-77
2022/10/17 06:09:16;;;;;;;7.15;0.90;;;14.80;99.90;;;14.16;100.00;101334.88;4168162;28;20052;-77
2022/10/17 06:11:17;;;;;;;7.25;1.75;;;14.90;99.90;;;14.16;100.00;101337.53;4151876;28;20505;-76
2022/10/17 06:13:18;;;;;;;7.25;1.42;;;14.90;99.90;;;14.12;100.00;101329.09;4167935;28;20036;-77
2022/10/17 06:15:19;;;;;;;7.88;1.40;;;14.90;99.90;;;14.03;100.00;101319.47;4151807;28;20014;-77
2022/10/17 06:17:20;;;;;;;5.63;1.50;;;14.90;99.90;;;14.18;100.00;101343.53;4167859;28;20068;-77
2022/10/17 06:19:21;;;;;;;7.53;1.33;;;14.90;99.90;;;14.16;100.00;101335.72;4167983;28;20547;-77
2022/10/17 06:21:25;;;;;;;3.90;1.00;;;14.90;99.90;;;14.19;100.00;101339.84;4151793;28;20037;-77
2022/10/17 06:23:26;;;;;;;5.95;1.40;;;14.90;99.90;;;14.20;100.00;101352.97;4168035;28;20025;-78
2022/10/17 06:25:30;;;;;;;8.05;1.70;;;15.00;99.90;;;14.21;100.00;101348.50;4167803;28;20025;-77
2022/10/17 06:27:31;;;;;;;3.13;0.80;;;15.00;99.90;;;14.11;100.00;101330.06;4135132;28;20061;-78
2022/10/17 06:29:32;;;;;;;2.42;0.80;;;15.00;99.90;;;14.13;100.00;101338.69;4152794;28;20038;-77
2022/10/17 06:31:33;;;;;;;6.28;1.25;;;15.00;99.90;;;14.26;100.00;101356.78;4151015;28;20051;-78
2022/10/17 06:33:34;;;;;;;7.15;1.13;;;15.00;99.90;;;14.09;100.00;101339.19;4150998;28;20065;-78
2022/10/17 06:35:35;;;;;;;6.82;1.75;;;15.00;99.90;;;14.22;100.00;101363.41;4167790;28;20041;-77
2022/10/17 06:37:36;;;;;;;5.63;1.35;;;15.00;99.90;;;14.21;100.00;101367.06;4152547;28;20022;-78
2022/10/17 06:39:37;;;;;;;9.88;1.30;;;15.00;99.90;;;14.17;100.00;101355.13;4152572;28;20125;-77
2022/10/17 06:41:40;;;;;;;6.03;1.30;;;15.00;99.90;;;14.24;100.00;101364.94;4152504;28;20101;-78
2022/10/17 06:43:45;;;;;;;2.90;1.17;;;15.00;99.90;;;14.15;100.00;101347.34;4152422;28;20029;-78
2022/10/17 06:45:46;;;;;;;4.32;1.20;;;15.00;99.90;;;14.16;100.00;101351.63;4167305;28;20397;-78
2022/10/17 06:47:48;;;;;;;3.47;0.95;;;15.00;99.90;;;14.20;100.00;101358.28;4152460;28;20509;-77
2022/10/17 06:49:49;;;;;;;3.08;1.50;;;15.00;99.90;;;14.26;100.00;101373.53;4149139;28;20018;-77
2022/10/17 06:51:50;;;;;;;5.03;1.15;;;15.00;99.90;;;14.16;100.00;101356.94;4167600;28;20052;-77
2022/10/17 06:53:51;;;;;;;7.32;1.42;;;15.00;99.90;;;14.26;100.00;101386.81;4135014;28;20034;-77
2022/10/17 06:56:00;;;;;;;2.97;1.13;;;15.00;99.90;;;14.13;100.00;101375.84;4151940;28;20063;-77
2022/10/17 06:58:00;;;;;;;4.07;1.00;;;15.00;99.90;;;14.14;100.00;101377.50;4151201;28;20022;-77
2022/10/17 07:00:05;;;;;;;5.68;1.23;;;15.00;99.90;;;14.15;100.00;101387.13;4134853;28;20030;-77
2022/10/17 07:02:07;;;;;;;11.52;2.88;;;15.00;99.90;;;14.24;100.00;101401.25;4152172;28;20022;-78
2022/10/17 07:04:08;;;;;;;4.57;1.20;;;15.00;99.90;;;14.21;100.00;101401.56;4152310;28;20061;-78
2022/10/17 07:06:12;;;;;;;6.50;1.48;;;15.00;99.90;;;14.23;100.00;101403.06;4151140;28;20037;-78
2022/10/17 07:08:12;;;;;;;;;;;15.00;99.90;;;14.28;100.00;101424.63;4150589;28;20481;-77
2022/10/17 07:10:13;;;;;;;3.25;1.02;;;15.00;99.90;;;14.13;100.00;101405.03;4152159;28;19913;-78
2022/10/17 07:12:14;;;;;;;7.70;1.13;;;15.10;99.90;;;14.23;100.00;101420.81;4150488;28;20026;-78
2022/10/17 07:14:15;;;;;;;4.80;1.10;;;15.00;99.90;;;14.33;100.00;101437.44;4150977;28;20537;-77
2022/10/17 07:16:16;;;;;;;3.83;0.80;;;15.10;99.90;;;14.30;100.00;101443.88;4150741;28;20047;-78
2022/10/17 07:18:17;;;;;;;3.88;1.00;;;15.10;99.90;;;14.29;100.00;101439.56;4137523;28;20089;-78
2022/10/17 07:20:18;;;;;;;5.50;1.00;;;15.10;99.90;;;14.36;100.00;101453.88;4154192;28;20509;-77
2022/10/17 07:22:19;;;;;;;4.57;0.82;;;15.10;99.90;;;14.38;100.00;101462.50;4137920;28;20027;-78
2022/10/17 07:24:20;;;;;;;2.53;1.10;;;15.10;99.90;;;14.35;100.00;101452.22;4155399;28;20485;-78
2022/10/17 07:26:21;;;;;;;4.40;0.93;;;15.10;99.90;;;14.40;100.00;101457.84;4154176;28;20030;-77
2022/10/17 07:28:22;;;;;;;4.88;1.05;;;15.20;99.90;;;14.54;100.00;101472.34;4170497;28;20092;-78
2022/10/17 07:30:23;;;;;;;4.15;1.15;;;15.30;99.90;;;14.71;100.00;101489.94;4155196;28;20478;-77
2022/10/17 07:32:24;;;;;;;4.88;1.60;;;15.40;99.90;;;14.83;100.00;101498.41;4154998;28;20041;-78
2022/10/17 07:34:26;;;;;;;8.63;1.27;;;15.50;99.90;;;14.81;100.00;101492.44;4155403;28;20061;-78
2022/10/17 07:36:27;;;;;;;3.67;0.95;;;15.60;99.90;;;14.92;100.00;101489.44;4155359;28;20026;-78
2022/10/17 07:38:28;;;;;;;5.45;1.10;;;15.70;99.90;;;15.03;100.00;101494.41;4154067;28;20481;-78
2022/10/17 07:40:29;;;;;;;4.90;1.10;;;15.80;99.90;;;15.10;100.00;101490.09;4170558;28;20029;-78
2022/10/17 07:42:30;;;;;;;1.83;0.80;;;15.90;99.90;;;15.13;100.00;101489.78;4137623;28;20033;-78
2022/10/17 07:44:31;;;;;;;4.22;1.10;;;16.00;99.90;;;15.25;100.00;101493.75;4144759;28;20030;-77
2022/10/17 07:46:32;;;;;;;5.82;1.45;;;16.10;99.90;;;15.40;100.00;101497.38;4154871;28;20404;-78
2022/10/17 07:48:34;;;;;;;4.10;0.90;;;16.20;99.90;;;15.54;100.00;101495.03;4155177;28;20037;-78
2022/10/17 07:50:35;;;;;;;3.65;0.88;;;16.30;99.90;;;15.65;100.00;101500.03;4137397;28;20030;-78
2022/10/17 07:52:36;;;;;;;4.78;0.88;;;16.40;99.90;;;15.74;100.00;101496.34;4153932;28;20033;-78
2022/10/17 07:54:37;;;;;;;5.30;1.15;;;16.50;99.90;;;15.90;100.00;101502.44;4153856;28;20033;-78
2022/10/17 07:56:38;;;;;;;5.75;1.27;;;16.70;99.90;;;15.90;100.00;101496.28;4137369;28;20026;-78
2022/10/17 07:58:39;;;;;;;6.65;1.15;;;16.70;99.90;;;16.06;100.00;101501.53;4170116;28;20532;-78
2022/10/17 08:00:40;;;;;;;2.92;1.13;;;16.80;99.90;;;16.06;100.00;101488.22;4170270;28;20063;-78
2022/10/17 08:02:41;;;;;;;4.22;0.90;;;16.90;99.90;;;16.15;100.00;101487.19;4155134;28;20022;-78
2022/10/17 08:04:42;;;;;;;4.63;1.27;;;17.00;99.90;;;16.13;100.00;101467.88;4154863;28;20057;-77
2022/10/17 08:06:43;;;;;;;3.95;0.80;;;17.10;99.90;;;16.18;100.00;101464.72;4137339;28;20548;-77
2022/10/17 08:08:44;;;;;;;2.65;0.60;;;17.10;99.90;;;16.38;100.00;101487.22;4155040;28;20053;-77
2022/10/17 08:10:45;;;;;;;2.33;0.68;;;17.10;99.90;;;16.39;100.00;101484.41;4154739;28;20025;-78
2022/10/17 08:12:46;;;;;;;2.90;1.13;;;17.20;99.90;;;16.45;100.00;101489.03;4154619;28;20029;-77
2022/10/17 08:14:47;;;;;;;4.07;0.90;;;17.30;99.90;;;16.54;100.00;101501.31;4154440;28;20383;-78
2022/10/17 08:16:47;;;;;;;3.03;0.60;;;17.30;99.90;;;16.39;100.00;101481.75;4153197;28;20029;-78
2022/10/17 08:18:48;;;;;;;2.85;0.63;;;17.30;99.90;;;16.43;100.00;101500.81;4154585;28;20022;-78
2022/10/17 08:20:49;;;;;;;8.48;1.00;;;17.30;99.90;;;16.48;100.00;101509.97;4137157;28;20030;-78
2022/10/17 08:22:54;;;;;;;4.15;1.25;;;17.30;99.90;;;16.45;100.00;101514.81;4153280;28;20025;-78
2022/10/17 08:24:55;;;;;;;2.00;0.75;;;17.30;99.90;;;16.42;100.00;101525.81;4153323;28;20025;-77
2022/10/17 08:26:57;;;;;;;5.03;1.02;;;17.30;99.90;;;16.46;100.00;101537.75;4153580;28;20030;-78
2022/10/17 08:28:58;;;;;;;5.50;1.55;;;17.20;99.90;;;16.44;100.00;101543.28;4151910;28;20034;-78
2022/10/17 08:31:11;;;;;;;5.10;1.27;;;17.20;99.90;;;16.35;100.00;101520.38;4153916;28;20060;-78